createdAt,value
2018-02-18T00:02:00.859Z,0.40
2018-02-18T00:04:32.057Z,0.41
2018-02-18T00:07:00.364Z,0.43
2018-02-18T00:09:28.795Z,0.44
2018-02-18T00:11:57.122Z,0.42
2018-02-18T00:17:39.393Z,0.38
2018-02-18T00:20:09.616Z,0.36
2018-02-18T00:22:37.984Z,0.38
2018-02-18T00:25:07.064Z,0.36
2018-02-18T00:27:35.368Z,0.35
2018-02-18T00:30:03.753Z,0.34
2018-02-18T00:32:32.070Z,0.33
2018-02-18T00:35:03.759Z,0.32
2018-02-18T00:37:32.861Z,0.33
2018-02-18T00:40:05.305Z,0.33
2018-02-18T00:42:35.545Z,0.34
2018-02-18T00:45:03.955Z,0.35
2018-02-18T00:47:33.049Z,0.34
2018-02-18T00:50:01.375Z,0.34
2018-02-18T00:52:29.683Z,0.37
2018-02-18T00:54:58.075Z,0.37
2018-02-18T00:57:27.606Z,0.38
2018-02-18T00:59:56.789Z,0.39
2018-02-18T01:02:25.087Z,0.40
2018-02-18T01:04:53.439Z,0.40
2018-02-18T01:07:21.753Z,0.39
2018-02-18T01:09:50.111Z,0.39
2018-02-18T01:12:18.430Z,0.36
2018-02-18T01:14:46.732Z,0.32
2018-02-18T01:17:17.014Z,0.33
2018-02-18T01:19:47.490Z,0.31
2018-02-18T01:22:18.222Z,0.35
2018-02-18T01:24:48.392Z,0.33
2018-02-18T01:27:16.770Z,0.28
2018-02-18T01:29:45.267Z,0.28
2018-02-18T01:32:14.355Z,0.31
2018-02-18T01:34:42.744Z,0.32
2018-02-18T01:37:11.313Z,0.32
2018-02-18T01:39:39.627Z,0.26
2018-02-18T01:42:08.889Z,0.25
2018-02-18T01:44:37.204Z,0.26
2018-02-18T01:47:06.289Z,0.22
2018-02-18T01:49:34.632Z,0.24
2018-02-18T01:52:02.957Z,0.24
2018-02-18T01:54:31.327Z,0.24
2018-02-18T01:57:02.309Z,0.22
2018-02-18T01:59:32.393Z,0.24
2018-02-18T02:02:00.727Z,0.24
2018-02-18T02:04:31.023Z,0.26
2018-02-18T02:07:02.075Z,0.24
2018-02-18T02:09:31.264Z,0.26
2018-02-18T02:11:59.675Z,0.26
2018-02-18T02:14:28.082Z,0.29
2018-02-18T02:16:56.497Z,0.28
2018-02-18T02:19:27.505Z,0.23
2018-02-18T02:21:55.861Z,0.23
2018-02-18T02:24:25.036Z,0.25
2018-02-18T02:26:53.355Z,0.27
2018-02-18T02:29:22.660Z,0.23
2018-02-18T02:31:51.005Z,0.21
2018-02-18T02:34:19.327Z,0.22
2018-02-18T02:36:47.892Z,0.21
2018-02-18T02:39:16.182Z,0.23
2018-02-18T02:41:44.555Z,0.23
2018-02-18T02:44:13.567Z,0.22
2018-02-18T02:46:42.709Z,0.20
2018-02-18T02:49:12.761Z,0.19
2018-02-18T02:51:41.138Z,0.21
2018-02-18T02:54:10.244Z,0.22
2018-02-18T02:56:40.754Z,0.22
2018-02-18T02:59:09.134Z,0.22
2018-02-18T03:01:40.376Z,0.22
2018-02-18T03:04:08.747Z,0.21
2018-02-18T03:06:37.175Z,0.20
2018-02-18T03:09:05.517Z,0.19
2018-02-18T03:11:33.994Z,0.18
2018-02-18T03:14:02.295Z,0.17
2018-02-18T03:16:31.477Z,0.17
2018-02-18T03:19:00.573Z,0.17
2018-02-18T03:21:29.713Z,0.15
2018-02-18T03:24:02.238Z,0.13
2018-02-18T03:26:30.603Z,0.11
2018-02-18T03:28:58.960Z,0.13
2018-02-18T03:31:27.374Z,0.14
2018-02-18T03:33:56.156Z,0.17
2018-02-18T03:36:24.538Z,0.17
2018-02-18T03:38:52.845Z,0.17
2018-02-18T03:41:21.234Z,0.17
2018-02-18T03:43:49.597Z,0.16
2018-02-18T03:46:17.989Z,0.14
2018-02-18T03:48:46.497Z,0.15
2018-02-18T03:51:15.573Z,0.16
2018-02-18T03:53:46.515Z,0.18
2018-02-18T03:56:15.116Z,0.13
2018-02-18T03:58:43.483Z,0.14
2018-02-18T04:01:11.806Z,0.14
2018-02-18T04:03:40.240Z,0.15
2018-02-18T04:06:08.656Z,0.17
2018-02-18T04:08:37.165Z,0.17
2018-02-18T04:11:05.731Z,0.20
2018-02-18T04:13:34.098Z,0.19
2018-02-18T04:16:02.412Z,0.17
2018-02-18T04:18:30.767Z,0.17
2018-02-18T04:20:59.225Z,0.16
2018-02-18T04:23:27.569Z,0.15
2018-02-18T04:25:58.288Z,0.16
2018-02-18T04:28:26.689Z,0.16
2018-02-18T04:30:55.006Z,0.14
2018-02-18T04:33:23.390Z,0.12
2018-02-18T04:35:52.225Z,0.12
2018-02-18T04:38:20.535Z,0.11
2018-02-18T04:40:48.932Z,0.11
2018-02-18T04:43:17.368Z,0.10
2018-02-18T04:45:46.756Z,0.09
2018-02-18T04:48:16.790Z,0.09
2018-02-18T04:50:45.136Z,0.09
2018-02-18T04:53:14.978Z,0.10
2018-02-18T04:55:44.152Z,0.09
2018-02-18T04:58:12.486Z,0.10
2018-02-18T05:00:41.176Z,0.10
2018-02-18T05:03:09.521Z,0.10
2018-02-18T05:05:37.989Z,0.10
2018-02-18T05:08:08.072Z,0.12
2018-02-18T05:10:36.411Z,0.11
2018-02-18T05:13:04.740Z,0.10
2018-02-18T05:15:34.819Z,0.11
2018-02-18T05:18:05.376Z,0.11
2018-02-18T05:20:33.723Z,0.12
2018-02-18T05:23:03.774Z,0.10
2018-02-18T05:25:32.966Z,0.08
2018-02-18T05:28:01.599Z,0.08
2018-02-18T05:30:29.947Z,0.09
2018-02-18T05:32:58.402Z,0.11
2018-02-18T05:35:26.724Z,0.09
2018-02-18T05:37:55.776Z,0.08
2018-02-18T05:40:24.106Z,0.07
2018-02-18T05:42:55.974Z,0.08
2018-02-18T05:45:25.213Z,0.08
2018-02-18T05:47:53.507Z,0.08
2018-02-18T05:50:21.900Z,0.09
2018-02-18T05:52:50.277Z,0.09
2018-02-18T05:55:18.739Z,0.09
2018-02-18T05:57:47.067Z,0.05
2018-02-18T06:00:17.288Z,0.05
2018-02-18T06:02:48.043Z,0.04
2018-02-18T06:05:19.116Z,0.03
2018-02-18T06:07:48.214Z,0.01
2018-02-18T06:10:16.522Z,0.00
2018-02-18T06:12:45.032Z,0.01
2018-02-18T06:15:13.401Z,0.01
2018-02-18T06:17:42.458Z,0.01
2018-02-18T06:20:10.946Z,0.02
2018-02-18T06:22:41.005Z,0.03
2018-02-18T06:25:09.411Z,0.03
2018-02-18T06:27:37.730Z,0.02
2018-02-18T06:30:06.456Z,0.03
2018-02-18T06:32:34.788Z,0.03
2018-02-18T06:35:03.113Z,0.04
2018-02-18T06:37:34.268Z,0.04
2018-02-18T06:40:02.582Z,0.04
2018-02-18T06:42:31.409Z,0.08
2018-02-18T06:44:59.695Z,0.07
2018-02-18T06:47:28.029Z,0.06
2018-02-18T06:49:57.090Z,0.06
2018-02-18T06:52:25.464Z,0.05
2018-02-18T06:54:53.762Z,0.04
2018-02-18T06:57:22.125Z,0.07
2018-02-18T06:59:50.586Z,0.07
2018-02-18T07:02:19.015Z,0.10
2018-02-18T07:04:49.126Z,0.13
2018-02-18T07:07:17.457Z,0.14
2018-02-18T07:09:45.785Z,0.18
2018-02-18T07:12:14.099Z,0.22
2018-02-18T07:14:42.541Z,0.23
2018-02-18T07:17:11.003Z,0.23
2018-02-18T07:19:39.316Z,0.27
2018-02-18T07:22:07.604Z,0.29
2018-02-18T07:24:35.935Z,0.32
2018-02-18T07:27:04.980Z,0.37
2018-02-18T07:29:33.309Z,0.41
2018-02-18T07:32:02.372Z,0.44
2018-02-18T07:34:30.696Z,0.46
2018-02-18T07:36:59.883Z,0.48
2018-02-18T07:39:28.197Z,0.48
2018-02-18T07:41:56.514Z,0.46
2018-02-18T07:44:27.583Z,0.47
2018-02-18T07:46:55.933Z,0.47
2018-02-18T07:49:24.278Z,0.47
2018-02-18T07:51:52.598Z,0.46
2018-02-18T07:54:20.923Z,0.46
2018-02-18T07:56:49.227Z,0.52
2018-02-18T07:59:17.875Z,0.56
2018-02-18T08:01:51.013Z,0.61
2018-02-18T08:04:20.490Z,0.66
2018-02-18T08:06:48.836Z,0.70
2018-02-18T08:09:17.161Z,0.70
2018-02-18T08:11:47.417Z,0.71
2018-02-18T08:14:18.111Z,0.77
2018-02-18T08:16:48.503Z,0.80
2018-02-18T08:19:17.023Z,0.81
2018-02-18T08:21:45.379Z,0.88
2018-02-18T08:24:13.748Z,0.91
2018-02-18T08:26:44.141Z,0.95
2018-02-18T08:29:14.125Z,1.02
2018-02-18T08:31:43.226Z,1.03
2018-02-18T08:34:13.544Z,1.02
2018-02-18T08:36:42.639Z,1.04
2018-02-18T08:39:11.843Z,1.00
2018-02-18T08:41:40.171Z,1.00
2018-02-18T08:44:09.637Z,1.00
2018-02-18T08:46:38.154Z,1.07
2018-02-18T08:49:06.485Z,1.17
2018-02-18T08:51:36.822Z,1.21
2018-02-18T08:54:06.016Z,1.22
2018-02-18T08:56:35.221Z,1.22
2018-02-18T08:59:03.613Z,1.24
2018-02-18T09:01:34.587Z,1.30
2018-02-18T09:04:03.340Z,1.32
2018-02-18T09:06:31.680Z,1.38
2018-02-18T09:09:00.020Z,1.42
2018-02-18T09:11:29.199Z,1.40
2018-02-18T09:13:57.542Z,1.43
2018-02-18T09:16:25.853Z,1.42
2018-02-18T09:18:55.934Z,1.42
2018-02-18T09:21:24.300Z,1.51
2018-02-18T09:23:54.274Z,1.64
2018-02-18T09:26:22.667Z,1.74
2018-02-18T09:28:50.998Z,1.85
2018-02-18T09:31:19.322Z,1.93
2018-02-18T09:33:50.371Z,2.00
2018-02-18T09:36:18.944Z,2.11
2018-02-18T09:38:48.035Z,2.07
2018-02-18T09:41:16.438Z,2.06
2018-02-18T09:43:47.047Z,2.05
2018-02-18T09:46:16.167Z,1.95
2018-02-18T09:48:46.294Z,1.85
2018-02-18T09:51:14.685Z,1.87
2018-02-18T09:53:43.768Z,1.93
2018-02-18T09:56:12.865Z,1.83
2018-02-18T09:58:41.187Z,1.88
2018-02-18T10:01:09.604Z,1.91
2018-02-18T10:03:38.687Z,1.86
2018-02-18T10:06:07.776Z,1.84
2018-02-18T10:08:36.236Z,1.82
2018-02-18T10:11:04.584Z,1.82
2018-02-18T10:13:32.932Z,1.81
2018-02-18T10:16:01.266Z,1.87
2018-02-18T10:18:30.363Z,1.89
2018-02-18T10:20:58.758Z,1.92
2018-02-18T10:23:27.164Z,1.88
2018-02-18T10:25:57.251Z,1.91
2018-02-18T10:28:25.627Z,1.96
2018-02-18T10:30:54.721Z,2.03
2018-02-18T10:33:23.934Z,1.97
2018-02-18T10:35:54.125Z,2.04
2018-02-18T10:38:22.639Z,2.01
2018-02-18T10:40:51.023Z,2.10
2018-02-18T10:43:19.424Z,2.20
2018-02-18T10:45:49.172Z,2.22
2018-02-18T10:48:18.339Z,2.14
2018-02-18T10:50:46.767Z,2.14
2018-02-18T10:53:15.092Z,2.33
2018-02-18T10:55:44.177Z,2.37
2018-02-18T10:58:12.657Z,2.40
2018-02-18T11:00:41.038Z,2.47
2018-02-18T11:03:09.422Z,2.59
2018-02-18T11:05:37.777Z,2.59
2018-02-18T11:08:07.215Z,2.65
2018-02-18T11:10:35.625Z,2.68
2018-02-18T11:13:08.696Z,2.82
2018-02-18T11:15:38.790Z,3.00
2018-02-18T11:18:07.945Z,3.11
2018-02-18T11:20:38.503Z,3.00
2018-02-18T11:23:07.836Z,2.93
2018-02-18T11:25:36.363Z,3.04
2018-02-18T11:28:04.674Z,3.21
2018-02-18T11:30:33.021Z,3.19
2018-02-18T11:33:01.411Z,3.15
2018-02-18T11:35:30.804Z,3.05
2018-02-18T11:37:59.158Z,2.90
2018-02-18T11:40:29.876Z,2.92
2018-02-18T11:43:00.142Z,2.85
2018-02-18T11:45:32.217Z,2.79
2018-02-18T11:48:00.636Z,2.76
2018-02-18T11:50:29.043Z,2.58
2018-02-18T11:52:59.026Z,2.47
2018-02-18T11:55:29.316Z,2.44
2018-02-18T11:58:00.937Z,2.41
2018-02-18T12:00:32.083Z,2.41
2018-02-18T12:03:00.463Z,2.48
2018-02-18T12:05:30.011Z,2.58
2018-02-18T12:07:58.489Z,2.73
2018-02-18T12:10:26.875Z,2.80
2018-02-18T12:12:55.661Z,2.79
2018-02-18T12:15:27.083Z,2.84
2018-02-18T12:17:56.786Z,2.80
2018-02-18T12:20:25.195Z,2.97
2018-02-18T12:22:53.543Z,3.17
2018-02-18T12:25:25.228Z,3.36
2018-02-18T12:27:59.701Z,3.28
2018-02-18T12:30:37.743Z,3.30
2018-02-18T12:33:11.961Z,3.01
2018-02-18T12:35:45.900Z,3.08
2018-02-18T12:38:19.988Z,3.08
2018-02-18T12:40:53.907Z,3.19
2018-02-18T12:43:27.696Z,3.15
2018-02-18T12:46:03.370Z,3.18
2018-02-18T12:48:39.364Z,3.24
2018-02-18T12:51:14.550Z,3.14
2018-02-18T12:53:50.162Z,3.05
2018-02-18T12:56:25.846Z,2.94
2018-02-18T12:59:01.211Z,2.94
2018-02-18T13:01:35.906Z,2.90
2018-02-18T13:04:10.175Z,2.82
2018-02-18T13:06:46.048Z,2.75
2018-02-18T13:09:24.734Z,2.69
2018-02-18T13:12:00.796Z,2.74
2018-02-18T13:14:37.004Z,2.74
2018-02-18T13:17:14.516Z,2.69
2018-02-18T13:19:49.986Z,2.69
2018-02-18T13:22:28.986Z,2.76
2018-02-18T13:25:04.906Z,2.85
2018-02-18T13:27:40.449Z,2.68
2018-02-18T13:30:14.464Z,2.65
2018-02-18T13:32:49.109Z,2.59
2018-02-18T13:35:23.117Z,2.51
2018-02-18T13:37:57.025Z,2.49
2018-02-18T13:40:35.585Z,2.51
2018-02-18T13:43:10.054Z,2.50
2018-02-18T13:45:45.936Z,2.49
2018-02-18T13:48:20.436Z,2.51
2018-02-18T13:50:55.213Z,2.52
2018-02-18T13:53:29.442Z,2.52
2018-02-18T13:56:03.359Z,2.45
2018-02-18T13:58:37.137Z,2.40
2018-02-18T14:01:14.702Z,2.34
2018-02-18T14:03:51.023Z,2.33
2018-02-18T14:06:26.509Z,2.35
2018-02-18T14:09:03.135Z,2.31
2018-02-18T14:11:37.021Z,2.33
2018-02-18T14:14:10.935Z,2.38
2018-02-18T14:16:44.759Z,2.35
2018-02-18T14:19:18.771Z,2.33
2018-02-18T14:21:52.628Z,2.35
2018-02-18T14:24:27.608Z,2.26
2018-02-18T14:27:03.570Z,2.26
2018-02-18T14:29:38.296Z,2.27
2018-02-18T14:32:14.044Z,2.28
2018-02-18T14:34:48.684Z,2.24
2018-02-18T14:37:22.803Z,2.20
2018-02-18T14:39:56.862Z,2.17
2018-02-18T14:42:42.652Z,2.17
2018-02-18T14:45:29.581Z,2.18
2018-02-18T14:48:18.193Z,2.25
2018-02-18T14:51:04.647Z,2.31
2018-02-18T14:53:50.609Z,2.30
2018-02-18T15:17:11.836Z,2.39
2018-02-18T15:19:45.557Z,2.27
2018-02-18T15:22:19.427Z,2.21
2018-02-18T15:24:47.735Z,2.17
2018-02-18T15:27:16.055Z,2.22
2018-02-18T15:29:44.290Z,2.18
2018-02-18T15:32:12.609Z,2.10
2018-02-18T15:34:40.910Z,2.10
2018-02-18T15:37:09.227Z,2.08
2018-02-18T15:39:37.527Z,2.03
2018-02-18T15:42:05.857Z,1.98
2018-02-18T15:44:34.157Z,1.93
2018-02-18T15:47:02.446Z,1.90
2018-02-18T15:49:30.778Z,1.90
2018-02-18T15:53:38.471Z,1.86
2018-02-18T15:56:08.912Z,1.83
2018-02-18T15:58:38.047Z,1.82
2018-02-18T16:01:06.455Z,1.82
2018-02-18T16:03:37.014Z,1.77
2018-02-18T16:06:05.914Z,1.74
2018-02-18T16:08:35.002Z,1.73
2018-02-18T16:11:03.479Z,1.72
2018-02-18T16:13:33.808Z,1.73
2018-02-18T16:16:04.533Z,1.70
2018-02-18T16:18:32.985Z,1.68
2018-02-18T16:21:01.400Z,1.67
2018-02-18T16:23:30.577Z,1.65
2018-02-18T16:25:58.938Z,1.60
2018-02-18T16:28:28.058Z,1.55
2018-02-18T16:30:56.545Z,1.50
2018-02-18T16:33:26.258Z,1.47
2018-02-18T16:35:55.478Z,1.43
2018-02-18T16:38:24.762Z,1.40
2018-02-18T16:40:53.235Z,1.38
2018-02-18T16:43:21.613Z,1.37
2018-02-18T16:45:50.164Z,1.36
2018-02-18T16:48:18.578Z,1.34
2018-02-18T16:50:49.979Z,1.32
2018-02-18T16:53:21.068Z,1.31
2018-02-18T16:55:49.511Z,1.30
2018-02-18T16:58:18.808Z,1.29
2018-02-18T17:00:47.423Z,1.27
2018-02-18T17:03:16.965Z,1.26
2018-02-18T17:05:46.138Z,1.24
2018-02-18T17:08:14.550Z,1.22
2018-02-18T17:10:42.977Z,1.20
2018-02-18T17:13:11.375Z,1.19
2018-02-18T17:15:39.921Z,1.18
2018-02-18T17:18:10.049Z,1.15
2018-02-18T17:20:38.412Z,1.14
2018-02-18T17:23:06.751Z,1.15
2018-02-18T17:25:35.113Z,1.14
2018-02-18T17:28:03.592Z,1.12
2018-02-18T17:30:32.073Z,1.11
2018-02-18T17:33:02.160Z,1.09
2018-02-18T17:35:30.760Z,1.05
2018-02-18T17:37:59.152Z,1.02
2018-02-18T17:40:27.540Z,0.98
2018-02-18T17:42:57.630Z,0.95
2018-02-18T17:45:26.059Z,0.91
2018-02-18T17:47:54.472Z,0.87
2018-02-18T17:50:24.676Z,0.85
2018-02-18T17:52:53.138Z,0.83
2018-02-18T17:55:21.824Z,0.81
2018-02-18T17:57:50.238Z,0.80
2018-02-18T18:00:18.721Z,0.77
2018-02-18T18:02:48.740Z,0.76
2018-02-18T18:05:18.830Z,0.74
2018-02-18T18:07:48.134Z,0.74
2018-02-18T18:10:17.212Z,0.72
2018-02-18T18:12:45.637Z,0.70
2018-02-18T18:15:14.097Z,0.67
2018-02-18T18:17:42.555Z,0.66
2018-02-18T18:20:11.018Z,0.64
2018-02-18T18:22:43.919Z,0.63
2018-02-18T18:25:12.359Z,0.62
2018-02-18T18:27:42.665Z,0.60
2018-02-18T18:30:12.922Z,0.59
2018-02-18T18:32:41.319Z,0.58
2018-02-18T18:35:09.804Z,0.54
2018-02-18T18:37:38.333Z,0.49
2018-02-18T18:40:07.100Z,0.45
2018-02-18T18:42:37.284Z,0.43
2018-02-18T18:45:06.899Z,0.41
2018-02-18T18:47:35.331Z,0.36
2018-02-18T18:50:04.196Z,0.34
2018-02-18T18:52:33.000Z,0.33
2018-02-18T18:55:01.411Z,0.30
2018-02-18T18:57:31.623Z,0.31
2018-02-18T19:09:45.091Z,0.27
2018-02-18T19:12:14.861Z,0.28
2018-02-18T19:14:44.648Z,0.27
2018-02-18T19:17:19.395Z,0.25
2018-02-18T19:19:48.381Z,0.25
2018-02-18T19:22:17.590Z,0.23
2018-02-18T19:24:46.379Z,0.22
2018-02-18T19:27:18.900Z,0.20
2018-02-18T19:29:48.231Z,0.17
2018-02-18T19:32:16.964Z,0.14
2018-02-18T19:34:45.765Z,0.11
2018-02-18T19:37:17.617Z,0.08
2018-02-18T19:39:47.803Z,0.03
2018-02-18T19:42:18.656Z,-0.02
2018-02-18T19:44:47.438Z,-0.04
2018-02-18T19:47:18.458Z,-0.10
2018-02-18T19:49:48.500Z,-0.13
2018-02-18T19:52:17.031Z,-0.16
2018-02-18T19:54:46.479Z,-0.18
2018-02-18T19:57:16.735Z,-0.24
2018-02-18T19:59:48.086Z,-0.25
2018-02-18T20:02:16.726Z,-0.28
2018-02-18T20:04:46.944Z,-0.30
2018-02-18T20:07:19.762Z,-0.31
2018-02-18T20:09:50.890Z,-0.34
2018-02-18T20:12:22.585Z,-0.36
2018-02-18T20:14:53.785Z,-0.39
2018-02-18T20:17:22.579Z,-0.42
2018-02-18T20:19:54.439Z,-0.43
2018-02-18T20:22:22.959Z,-0.45
2018-02-18T20:24:51.656Z,-0.46
2018-02-18T20:27:20.296Z,-0.47
2018-02-18T20:29:48.852Z,-0.48
2018-02-18T20:32:17.439Z,-0.51
2018-02-18T20:34:46.066Z,-0.54
2018-02-18T20:37:15.476Z,-0.55
2018-02-18T20:39:46.031Z,-0.60
2018-02-18T20:42:23.424Z,-0.64
2018-02-18T20:44:53.647Z,-0.67
2018-02-18T20:47:22.329Z,-0.70
2018-02-18T20:49:53.080Z,-0.73
2018-02-18T20:52:21.970Z,-0.75
2018-02-18T20:54:50.498Z,-0.79
2018-02-18T20:57:19.050Z,-0.83
2018-02-18T20:59:49.877Z,-0.86
2018-02-18T21:02:18.369Z,-0.88
2018-02-18T21:04:46.946Z,-0.91
2018-02-18T21:20:15.514Z,-1.03
2018-02-18T21:22:48.140Z,-1.07
2018-02-18T21:25:18.702Z,-1.09
2018-02-18T21:27:48.469Z,-1.12
2018-02-18T21:43:18.020Z,-1.24
2018-02-18T21:45:47.646Z,-1.24
2018-02-18T21:48:17.770Z,-1.26
2018-02-18T21:50:46.388Z,-1.28
2018-02-18T21:53:14.813Z,-1.31
2018-02-18T21:55:43.218Z,-1.33
2018-02-18T21:58:12.394Z,-1.36
2018-02-18T22:00:40.928Z,-1.39
2018-02-18T22:03:09.316Z,-1.41
2018-02-18T22:05:39.414Z,-1.44
2018-02-18T22:08:10.106Z,-1.47
2018-02-18T22:10:40.961Z,-1.50
2018-02-18T22:13:09.495Z,-1.54
2018-02-18T22:15:40.105Z,-1.56
2018-02-18T22:18:11.207Z,-1.60
2018-02-18T22:20:41.745Z,-1.60
2018-02-18T22:23:13.517Z,-1.61
2018-02-18T22:25:41.995Z,-1.64
2018-02-18T22:28:11.102Z,-1.67
2018-02-18T22:30:41.619Z,-1.69
2018-02-18T22:33:10.018Z,-1.68
2018-02-18T22:35:38.392Z,-1.66
2018-02-18T22:38:06.843Z,-1.67
2018-02-18T22:40:35.341Z,-1.67
2018-02-18T22:43:03.740Z,-1.65
2018-02-18T22:45:32.256Z,-1.69
2018-02-18T22:48:00.602Z,-1.71
2018-02-18T22:50:28.943Z,-1.73
2018-02-18T22:52:58.995Z,-1.77
2018-02-18T22:55:27.474Z,-1.81
2018-02-18T22:57:56.194Z,-1.85
2018-02-18T23:00:24.532Z,-1.84
2018-02-18T23:02:53.012Z,-1.84
2018-02-18T23:05:28.014Z,-1.84
2018-02-18T23:07:59.430Z,-1.86
2018-02-18T23:10:27.993Z,-1.90
2018-02-18T23:12:56.356Z,-1.92
2018-02-18T23:15:24.793Z,-1.94
2018-02-18T23:17:55.495Z,-1.94
2018-02-18T23:20:23.830Z,-1.94
2018-02-18T23:22:52.408Z,-1.96
2018-02-18T23:25:22.539Z,-1.99
2018-02-18T23:27:53.754Z,-2.05
2018-02-18T23:30:22.706Z,-2.08
2018-02-18T23:32:51.099Z,-2.10
2018-02-18T23:35:19.621Z,-2.12
2018-02-18T23:37:48.326Z,-2.14
2018-02-18T23:40:16.877Z,-2.17
2018-02-18T23:42:45.334Z,-2.20
2018-02-18T23:45:15.394Z,-2.22
2018-02-18T23:47:45.581Z,-2.22
2018-02-18T23:50:14.078Z,-2.20
2018-02-18T23:52:42.692Z,-2.19
2018-02-18T23:55:13.400Z,-2.19
2018-02-18T23:57:44.416Z,-2.18
